Time;durP1;ratioP1;P1;durP2;ratioP2;P2;SDS_P1;SDS_P2;PMS_P1;PMS_P2;Temp;Humidity;BMP_temperature;BMP_pressure;BME280_temperature;BME280_humidity;BME280_pressure;Samples;Min_cycle;Max_cycle;Signal;HPM_P1;HPM_P2
2023/08/08 00:00:04;;;;;;;;;;;19.70;73.60;;;;;;4137221;28;21098;-50
2023/08/08 00:02:45;;;;;;;;;;;19.70;74.60;;;;;;4155104;28;20485;-51
2023/08/08 00:05:25;;;;;;;;;;;19.70;73.70;;;;;;4161985;28;19932;-52
2023/08/08 00:08:06;;;;;;;;;;;19.70;73.80;;;;;;4137887;28;20015;-51
2023/08/08 00:10:47;;;;;;;;;;;19.70;73.90;;;;;;4137904;28;19933;-50
2023/08/08 00:13:28;;;;;;;;;;;19.70;74.00;;;;;;4138213;28;19933;-51
2023/08/08 00:16:10;;;;;;;;;;;19.70;74.20;;;;;;4138242;28;19952;-51
2023/08/08 00:18:53;;;;;;;;;;;19.60;74.20;;;;;;4155427;28;19936;-51
2023/08/08 00:21:34;;;;;;;;;;;19.60;74.20;;;;;;4157802;28;19978;-51
2023/08/08 00:24:14;;;;;;;;;;;19.60;74.30;;;;;;4140865;28;19932;-51
2023/08/08 00:26:55;;;;;;;;;;;19.60;74.40;;;;;;4129700;28;19936;-51
2023/08/08 00:29:36;;;;;;;;;;;19.60;74.40;;;;;;4157190;28;20086;-54
2023/08/08 00:32:18;;;;;;;;;;;19.60;74.50;;;;;;4145293;28;19932;-52
2023/08/08 00:34:59;;;;;;;;;;;19.60;74.60;;;;;;4144982;28;19936;-54
2023/08/08 00:37:40;;;;;;;;;;;19.60;74.70;;;;;;4144565;28;20391;-51
2023/08/08 00:40:20;;;;;;;;;;;19.60;74.80;;;;;;4156709;28;20056;-55
2023/08/08 00:43:01;;;;;;;;;;;19.60;74.80;;;;;;4141736;28;20442;-55
2023/08/08 00:45:44;;;;;;;;;;;19.60;75.00;;;;;;4173947;28;19931;-53
2023/08/08 00:48:27;;;;;;;;;;;19.60;75.00;;;;;;4167750;28;19932;-51
2023/08/08 00:51:08;;;;;;;;;;;19.60;75.10;;;;;;4155897;28;19936;-52
2023/08/08 00:53:50;;;;;;;;;;;19.60;75.10;;;;;;4141448;28;20060;-52
2023/08/08 00:56:31;;;;;;;;;;;19.60;75.10;;;;;;4155120;28;19936;-51
2023/08/08 00:59:12;;;;;;;;;;;19.60;75.20;;;;;;4145084;28;19932;-51
2023/08/08 01:01:53;;;;;;;;;;;19.60;75.30;;;;;;4156989;28;19932;-53
2023/08/08 01:04:35;;;;;;;;;;;19.50;75.30;;;;;;4155669;28;19932;-51
2023/08/08 01:07:18;;;;;;;;;;;19.50;75.40;;;;;;4145025;28;19932;-51
2023/08/08 01:10:04;;;;;;;;;;;19.60;75.50;;;;;;4160995;28;19936;-51
2023/08/08 01:12:46;;;;;;;;;;;19.60;75.60;;;;;;4162287;28;20319;-53
2023/08/08 01:15:27;;;;;;;;;;;19.50;76.50;;;;;;4155158;28;19932;-51
2023/08/08 01:18:09;;;;;;;;;;;19.50;75.60;;;;;;4148747;28;19932;-51
2023/08/08 01:20:51;;;;;;;;;;;19.50;75.70;;;;;;4156730;28;20407;-50
2023/08/08 01:23:35;;;;;;;;;;;19.60;76.70;;;;;;4154008;28;19932;-51
2023/08/08 01:26:19;;;;;;;;;;;19.50;75.90;;;;;;4169345;28;20033;-52
2023/08/08 01:29:00;;;;;;;;;;;19.50;75.90;;;;;;4144845;28;19932;-51
2023/08/08 01:31:41;;;;;;;;;;;19.50;76.80;;;;;;4173035;28;19974;-51
2023/08/08 01:34:23;;;;;;;;;;;19.50;76.00;;;;;;4172402;28;20457;-50
2023/08/08 01:37:08;;;;;;;;;;;19.50;76.10;;;;;;4149770;28;20399;-52
2023/08/08 01:39:49;;;;;;;;;;;19.50;76.10;;;;;;4155433;28;20018;-52
2023/08/08 01:42:32;;;;;;;;;;;19.50;77.00;;;;;;4156142;28;19963;-51
2023/08/08 01:45:13;;;;;;;;;;;19.50;76.20;;;;;;4151788;28;20305;-50
2023/08/08 01:47:54;;;;;;;;;;;19.50;76.30;;;;;;4123752;28;19948;-51
2023/08/08 01:50:36;;;;;;;;;;;19.50;77.20;;;;;;4113807;28;19979;-54
2023/08/08 01:53:17;;;;;;;;;;;19.50;76.30;;;;;;4139290;28;19933;-54
2023/08/08 01:55:57;;;;;;;;;;;19.50;76.40;;;;;;4142484;28;20292;-51
2023/08/08 01:58:39;;;;;;;;;;;19.50;76.50;;;;;;4156183;28;19932;-50
2023/08/08 02:01:20;;;;;;;;;;;19.50;76.50;;;;;;4154769;28;20074;-51
2023/08/08 02:04:01;;;;;;;;;;;19.50;76.50;;;;;;4158927;28;20409;-51
2023/08/08 02:06:41;;;;;;;;;;;19.50;76.60;;;;;;4154219;28;20406;-52
2023/08/08 02:09:22;;;;;;;;;;;19.50;76.70;;;;;;4156670;28;19932;-51
2023/08/08 02:12:05;;;;;;;;;;;19.50;76.70;;;;;;4160065;28;19935;-50
2023/08/08 02:14:47;;;;;;;;;;;19.50;76.70;;;;;;4139924;28;19983;-48
2023/08/08 02:17:28;;;;;;;;;;;19.50;76.70;;;;;;4127797;28;20015;-48
2023/08/08 02:20:11;;;;;;;;;;;19.50;76.80;;;;;;4139076;28;19936;-47
2023/08/08 02:22:52;;;;;;;;;;;19.40;76.70;;;;;;4124708;28;19936;-47
2023/08/08 02:25:33;;;;;;;;;;;19.40;76.70;;;;;;4150092;28;20313;-47
2023/08/08 02:28:13;;;;;;;;;;;19.40;76.90;;;;;;4142778;28;19936;-47
2023/08/08 02:30:57;;;;;;;;;;;19.40;76.90;;;;;;4154802;28;19933;-51
2023/08/08 02:33:39;;;;;;;;;;;19.40;77.00;;;;;;4155476;28;19936;-47
2023/08/08 02:36:20;;;;;;;;;;;19.40;77.10;;;;;;4155197;28;20083;-47
2023/08/08 02:39:00;;;;;;;;;;;19.40;78.00;;;;;;4155410;28;19932;-48
2023/08/08 02:41:42;;;;;;;;;;;19.40;77.20;;;;;;4153502;28;20063;-48
2023/08/08 02:44:23;;;;;;;;;;;19.40;77.20;;;;;;4154806;28;20022;-46
2023/08/08 02:47:06;;;;;;;;;;;19.40;77.30;;;;;;4159413;28;20417;-47
2023/08/08 02:49:48;;;;;;;;;;;19.40;77.40;;;;;;4159348;28;20038;-46
2023/08/08 02:52:29;;;;;;;;;;;19.40;77.50;;;;;;4162408;28;19935;-47
2023/08/08 02:55:10;;;;;;;;;;;19.40;77.60;;;;;;4131322;28;19932;-47
2023/08/08 02:57:52;;;;;;;;;;;19.40;77.60;;;;;;4154303;28;20008;-48
2023/08/08 03:00:33;;;;;;;;;;;19.40;77.70;;;;;;4142229;28;19963;-46
2023/08/08 03:03:16;;;;;;;;;;;19.40;77.70;;;;;;4153580;28;19956;-53
2023/08/08 03:05:58;;;;;;;;;;;19.40;77.80;;;;;;4164740;28;19978;-49
2023/08/08 03:08:40;;;;;;;;;;;19.40;78.70;;;;;;4154428;28;19936;-48
2023/08/08 03:11:21;;;;;;;;;;;19.40;77.80;;;;;;4154268;28;19936;-49
2023/08/08 03:14:02;;;;;;;;;;;19.40;77.80;;;;;;4153082;28;19936;-49
2023/08/08 03:16:44;;;;;;;;;;;19.30;77.80;;;;;;4158306;28;20296;-51
2023/08/08 03:19:27;;;;;;;;;;;19.30;77.80;;;;;;4158583;28;20139;-53
2023/08/08 03:22:08;;;;;;;;;;;19.30;77.80;;;;;;4174707;28;20288;-48
2023/08/08 03:24:51;;;;;;;;;;;19.30;77.90;;;;;;4142005;28;19936;-47
2023/08/08 03:27:31;;;;;;;;;;;19.30;77.80;;;;;;4114388;28;20305;-49
2023/08/08 03:30:13;;;;;;;;;;;19.30;78.00;;;;;;4137805;28;19932;-47
2023/08/08 03:32:55;;;;;;;;;;;19.30;78.00;;;;;;4142693;28;20030;-48
2023/08/08 03:35:38;;;;;;;;;;;19.30;78.00;;;;;;4154150;28;20468;-47
2023/08/08 03:38:18;;;;;;;;;;;19.30;78.10;;;;;;4153088;28;19932;-48
2023/08/08 03:40:59;;;;;;;;;;;19.30;78.00;;;;;;4153572;28;19944;-49
2023/08/08 03:43:40;;;;;;;;;;;19.30;78.10;;;;;;4151043;28;19936;-47
2023/08/08 03:46:21;;;;;;;;;;;19.30;78.10;;;;;;4150247;28;19932;-48
2023/08/08 03:49:01;;;;;;;;;;;19.30;79.10;;;;;;4142359;28;19937;-49
2023/08/08 03:51:44;;;;;;;;;;;19.30;78.20;;;;;;4127501;28;19933;-47
2023/08/08 03:54:24;;;;;;;;;;;19.20;78.20;;;;;;4125611;28;19958;-46
2023/08/08 03:57:05;;;;;;;;;;;19.20;79.00;;;;;;4129334;28;19975;-47
2023/08/08 03:59:46;;;;;;;;;;;19.30;78.20;;;;;;4135892;28;19933;-48
2023/08/08 04:02:28;;;;;;;;;;;19.20;78.20;;;;;;4157598;28;19936;-47
2023/08/08 04:05:09;;;;;;;;;;;19.20;78.20;;;;;;4154347;28;20038;-49
2023/08/08 04:07:51;;;;;;;;;;;19.20;78.20;;;;;;4174095;28;19951;-47
2023/08/08 04:10:32;;;;;;;;;;;19.20;78.20;;;;;;4158947;28;19932;-47
2023/08/08 04:13:13;;;;;;;;;;;19.20;78.20;;;;;;4140644;28;19998;-47
2023/08/08 04:15:54;;;;;;;;;;;19.20;78.10;;;;;;4157067;28;19936;-47
2023/08/08 04:18:35;;;;;;;;;;;19.20;78.20;;;;;;4157444;28;19932;-46
2023/08/08 04:21:16;;;;;;;;;;;19.20;78.20;;;;;;4155865;28;20018;-48
2023/08/08 04:23:58;;;;;;;;;;;19.20;78.10;;;;;;4138461;28;19932;-48
2023/08/08 04:26:39;;;;;;;;;;;19.20;78.10;;;;;;4125257;28;19936;-50
2023/08/08 04:29:20;;;;;;;;;;;19.20;78.20;;;;;;4128874;28;20475;-54
2023/08/08 04:32:01;;;;;;;;;;;19.20;79.20;;;;;;4155014;28;19936;-47
2023/08/08 04:34:42;;;;;;;;;;;19.20;78.60;;;;;;4157326;28;20072;-46
2023/08/08 04:37:23;;;;;;;;;;;19.30;78.90;;;;;;4156840;28;20014;-46
2023/08/08 04:40:05;;;;;;;;;;;19.30;78.80;;;;;;4155523;28;20010;-46
2023/08/08 04:42:46;;;;;;;;;;;19.30;78.60;;;;;;4139944;28;20400;-46
2023/08/08 04:45:28;;;;;;;;;;;19.30;78.40;;;;;;4128054;28;20404;-47
2023/08/08 04:48:10;;;;;;;;;;;19.30;78.40;;;;;;4140359;28;20005;-47
2023/08/08 04:50:50;;;;;;;;;;;19.30;78.30;;;;;;4136513;28;19932;-47
2023/08/08 04:53:31;;;;;;;;;;;19.30;78.30;;;;;;4155736;28;20391;-47
2023/08/08 04:56:13;;;;;;;;;;;19.20;79.10;;;;;;4156610;28;20067;-48
2023/08/08 04:58:54;;;;;;;;;;;19.20;78.20;;;;;;4126428;28;19936;-47
2023/08/08 05:01:34;;;;;;;;;;;19.20;78.20;;;;;;4113911;28;20309;-46
2023/08/08 05:04:15;;;;;;;;;;;19.20;78.10;;;;;;4144950;28;19940;-49
2023/08/08 05:06:57;;;;;;;;;;;19.20;78.00;;;;;;4172399;28;19955;-48
2023/08/08 05:09:38;;;;;;;;;;;19.20;78.00;;;;;;4172460;28;20141;-48
2023/08/08 05:12:20;;;;;;;;;;;19.20;78.00;;;;;;4141430;28;19933;-48
2023/08/08 05:15:00;;;;;;;;;;;19.30;78.90;;;;;;4156371;28;20062;-46
2023/08/08 05:17:41;;;;;;;;;;;19.20;78.00;;;;;;4136364;28;19932;-47
2023/08/08 05:20:23;;;;;;;;;;;19.30;78.00;;;;;;4140359;28;20403;-47
2023/08/08 05:23:03;;;;;;;;;;;19.30;78.90;;;;;;4128379;28;20369;-48
2023/08/08 05:25:45;;;;;;;;;;;19.30;78.00;;;;;;4143482;28;19932;-47
2023/08/08 05:28:27;;;;;;;;;;;19.30;78.00;;;;;;4151733;28;20103;-46
2023/08/08 05:31:09;;;;;;;;;;;19.30;78.00;;;;;;4154644;28;20347;-47
2023/08/08 05:33:50;;;;;;;;;;;19.30;77.90;;;;;;4155742;28;19936;-47
2023/08/08 05:36:30;;;;;;;;;;;19.40;78.00;;;;;;4156233;28;19959;-47
2023/08/08 05:39:11;;;;;;;;;;;19.40;78.00;;;;;;4151039;28;19933;-52
2023/08/08 05:41:52;;;;;;;;;;;19.40;78.00;;;;;;4172374;28;19936;-49
2023/08/08 05:44:34;;;;;;;;;;;19.50;78.00;;;;;;4172781;28;19943;-48
2023/08/08 05:47:15;;;;;;;;;;;19.50;78.00;;;;;;4155750;28;20014;-47
2023/08/08 05:49:56;;;;;;;;;;;19.50;77.90;;;;;;4155643;28;19936;-57
2023/08/08 05:52:36;;;;;;;;;;;19.50;78.00;;;;;;4156005;28;19932;-51
2023/08/08 05:55:17;;;;;;;;;;;19.50;77.90;;;;;;4155365;28;20414;-49
2023/08/08 05:57:58;;;;;;;;;;;19.60;78.90;;;;;;4124040;28;19937;-47
2023/08/08 06:00:42;;;;;;;;;;;19.60;77.90;;;;;;4139295;28;19964;-47
2023/08/08 06:03:23;;;;;;;;;;;19.60;77.60;;;;;;4155509;28;19948;-47
2023/08/08 06:06:03;;;;;;;;;;;19.60;77.40;;;;;;4155851;28;19936;-50
2023/08/08 06:08:44;;;;;;;;;;;19.70;77.30;;;;;;4152664;28;19979;-51
2023/08/08 06:11:25;;;;;;;;;;;19.70;77.20;;;;;;4155545;28;19932;-51
2023/08/08 06:14:06;;;;;;;;;;;19.70;78.00;;;;;;4139405;28;20454;-52
2023/08/08 06:16:48;;;;;;;;;;;19.70;77.20;;;;;;4146270;28;20064;-58
2023/08/08 06:19:29;;;;;;;;;;;19.80;77.10;;;;;;4154771;28;19974;-59
2023/08/08 06:22:09;;;;;;;;;;;19.80;77.00;;;;;;4154628;28;20445;-58
2023/08/08 06:24:50;;;;;;;;;;;19.80;76.70;;;;;;4143573;28;19947;-58
2023/08/08 06:27:31;;;;;;;;;;;19.90;76.40;;;;;;4140380;28;19952;-59
2023/08/08 06:30:12;;;;;;;;;;;19.90;76.10;;;;;;4157900;28;19932;-57
2023/08/08 06:32:54;;;;;;;;;;;20.00;75.80;;;;;;4146225;28;19933;-58
2023/08/08 06:35:35;;;;;;;;;;;20.10;75.40;;;;;;4155589;28;19936;-47
2023/08/08 06:38:16;;;;;;;;;;;20.10;75.00;;;;;;4152444;28;19976;-52
2023/08/08 06:40:57;;;;;;;;;;;20.20;75.60;;;;;;4170237;28;20391;-47
2023/08/08 06:43:38;;;;;;;;;;;20.20;74.30;;;;;;4154124;28;19937;-57
2023/08/08 06:46:20;;;;;;;;;;;20.30;73.90;;;;;;4151398;28;19936;-58
2023/08/08 06:49:02;;;;;;;;;;;20.40;73.70;;;;;;4147162;28;19940;-58
2023/08/08 06:51:43;;;;;;;;;;;20.40;73.40;;;;;;4139601;28;19932;-58
2023/08/08 06:54:23;;;;;;;;;;;20.40;73.10;;;;;;4139206;28;19983;-58
2023/08/08 06:57:04;;;;;;;;;;;20.50;73.00;;;;;;4138848;28;19933;-58
2023/08/08 06:59:50;;;;;;;;;;;20.50;72.70;;;;;;4153865;28;19932;-58
2023/08/08 07:02:31;;;;;;;;;;;20.60;72.60;;;;;;4154742;28;20002;-57
2023/08/08 07:05:14;;;;;;;;;;;20.50;72.40;;;;;;4171356;28;20288;-59
2023/08/08 07:07:55;;;;;;;;;;;20.50;72.30;;;;;;4159294;28;20063;-58
2023/08/08 07:10:36;;;;;;;;;;;20.60;72.20;;;;;;4154486;28;19952;-56
2023/08/08 07:13:17;;;;;;;;;;;20.60;72.00;;;;;;4142286;28;19988;-58
2023/08/08 07:15:58;;;;;;;;;;;20.60;71.90;;;;;;4136121;28;19933;-59
2023/08/08 07:18:39;;;;;;;;;;;20.60;72.00;;;;;;4128027;28;20407;-57
2023/08/08 07:21:21;;;;;;;;;;;20.60;72.00;;;;;;4153344;28;19936;-57
2023/08/08 07:24:04;;;;;;;;;;;20.60;72.20;;;;;;4153566;28;20301;-57
2023/08/08 07:26:45;;;;;;;;;;;20.60;72.00;;;;;;4153650;28;19932;-58
2023/08/08 07:29:26;;;;;;;;;;;20.60;71.80;;;;;;4155227;28;20423;-58
2023/08/08 07:32:07;;;;;;;;;;;20.70;71.70;;;;;;4154753;28;19932;-58
2023/08/08 07:34:48;;;;;;;;;;;20.70;71.50;;;;;;4154243;28;20304;-57
2023/08/08 07:37:29;;;;;;;;;;;20.70;71.40;;;;;;4142254;28;19994;-57
2023/08/08 07:40:17;;;;;;;;;;;20.60;71.30;;;;;;4154469;28;19936;-57
2023/08/08 07:42:58;;;;;;;;;;;20.60;71.20;;;;;;4136869;28;19936;-58
2023/08/08 07:45:38;;;;;;;;;;;20.60;71.10;;;;;;4123755;28;19933;-48
2023/08/08 07:48:19;;;;;;;;;;;20.60;70.90;;;;;;4154350;28;19967;-51
2023/08/08 07:51:00;;;;;;;;;;;20.60;70.90;;;;;;4153615;28;19936;-57
2023/08/08 07:53:42;;;;;;;;;;;20.60;71.00;;;;;;4151843;28;19932;-53
2023/08/08 07:56:26;;;;;;;;;;;20.50;71.10;;;;;;4155035;28;20499;-58
2023/08/08 07:59:06;;;;;;;;;;;20.50;71.20;;;;;;4153965;28;19952;-58
2023/08/08 08:01:47;;;;;;;;;;;20.50;71.20;;;;;;4153671;28;19933;-54
2023/08/08 08:04:27;;;;;;;;;;;20.50;71.40;;;;;;4139622;28;19936;-58
2023/08/08 08:07:09;;;;;;;;;;;20.40;71.70;;;;;;4154181;28;19932;-58
2023/08/08 08:09:51;;;;;;;;;;;20.50;71.20;;;;;;4154282;28;20265;-58
2023/08/08 08:12:32;;;;;;;;;;;20.50;71.00;;;;;;4149063;28;19937;-49
2023/08/08 08:15:13;;;;;;;;;;;20.40;70.80;;;;;;4151954;28;19948;-48
2023/08/08 08:17:54;;;;;;;;;;;20.40;70.90;;;;;;4144479;28;19932;-57
2023/08/08 08:20:35;;;;;;;;;;;20.40;71.00;;;;;;4153044;28;19960;-57
2023/08/08 08:23:15;;;;;;;;;;;20.40;71.20;;;;;;4140810;28;19940;-58
2023/08/08 08:26:00;;;;;;;;;;;20.40;71.30;;;;;;4154091;28;20017;-59
2023/08/08 08:28:41;;;;;;;;;;;20.40;71.20;;;;;;4170393;28;20022;-57
2023/08/08 08:31:22;;;;;;;;;;;20.40;71.00;;;;;;4159198;28;19936;-59
2023/08/08 08:34:02;;;;;;;;;;;20.40;70.90;;;;;;4143958;28;20059;-58
2023/08/08 08:36:43;;;;;;;;;;;20.40;70.90;;;;;;4139464;28;19936;-58
2023/08/08 08:39:24;;;;;;;;;;;20.30;70.80;;;;;;4154075;28;20291;-57
2023/08/08 08:42:07;;;;;;;;;;;20.30;70.90;;;;;;4143311;28;19932;-48
2023/08/08 08:44:49;;;;;;;;;;;20.30;71.10;;;;;;4156101;28;19932;-49
2023/08/08 08:47:31;;;;;;;;;;;20.30;72.10;;;;;;4142014;28;20386;-54
2023/08/08 08:50:11;;;;;;;;;;;20.30;71.40;;;;;;4144018;28;20067;-48
2023/08/08 08:52:55;;;;;;;;;;;20.30;71.40;;;;;;4140273;28;19936;-49
2023/08/08 08:55:36;;;;;;;;;;;20.30;71.50;;;;;;4156416;28;19996;-49
2023/08/08 08:58:18;;;;;;;;;;;20.30;71.90;;;;;;4156326;28;19948;-48
2023/08/08 09:01:00;;;;;;;;;;;20.30;72.20;;;;;;4140716;28;19975;-48
2023/08/08 09:03:40;;;;;;;;;;;20.20;72.50;;;;;;4140245;28;19932;-58
2023/08/08 09:06:23;;;;;;;;;;;20.20;72.70;;;;;;4126925;28;20034;-57
2023/08/08 09:09:04;;;;;;;;;;;20.20;72.80;;;;;;4153618;28;19940;-57
2023/08/08 09:11:56;;;;;;;;;;;20.20;72.70;;;;;;4153904;28;19941;-56
2023/08/08 09:14:40;;;;;;;;;;;20.20;72.60;;;;;;4143076;28;20640;-58
2023/08/08 09:17:21;;;;;;;;;;;20.30;72.50;;;;;;4155035;28;20446;-57
2023/08/08 09:20:07;;;;;;;;;;;20.30;72.20;;;;;;4155060;28;20499;-57
2023/08/08 09:22:48;;;;;;;;;;;20.30;72.00;;;;;;4155148;28;19933;-58
2023/08/08 09:25:29;;;;;;;;;;;20.30;71.80;;;;;;4155788;28;19933;-57
2023/08/08 09:28:10;;;;;;;;;;;20.30;71.80;;;;;;4166830;28;19978;-58
2023/08/08 09:30:53;;;;;;;;;;;20.30;71.90;;;;;;4156370;28;19936;-60
2023/08/08 09:33:34;;;;;;;;;;;20.30;72.20;;;;;;4155069;28;20445;-57
2023/08/08 09:36:15;;;;;;;;;;;20.30;72.50;;;;;;4172721;28;19932;-52
2023/08/08 09:38:55;;;;;;;;;;;20.30;72.70;;;;;;4141803;28;20028;-50
2023/08/08 09:41:36;;;;;;;;;;;20.30;73.70;;;;;;4135250;28;20004;-48
2023/08/08 09:44:17;;;;;;;;;;;20.30;72.90;;;;;;4156279;28;19975;-48
2023/08/08 09:47:00;;;;;;;;;;;20.30;72.90;;;;;;4145634;28;20063;-49
2023/08/08 09:49:41;;;;;;;;;;;20.40;72.70;;;;;;4166691;28;20291;-48
2023/08/08 09:52:22;;;;;;;;;;;20.40;72.50;;;;;;4155077;28;19996;-48
2023/08/08 09:55:03;;;;;;;;;;;20.40;72.20;;;;;;4155354;28;19964;-48
2023/08/08 09:57:45;;;;;;;;;;;20.40;72.20;;;;;;4154937;28;19932;-47
2023/08/08 10:00:27;;;;;;;;;;;20.40;72.20;;;;;;4148395;28;20808;-51
2023/08/08 10:03:10;;;;;;;;;;;20.40;72.10;;;;;;4130185;28;19974;-51
2023/08/08 10:05:51;;;;;;;;;;;20.50;72.10;;;;;;4127376;28;19940;-50
2023/08/08 10:08:32;;;;;;;;;;;20.50;72.10;;;;;;4169400;28;20071;-49
2023/08/08 10:11:14;;;;;;;;;;;20.50;71.90;;;;;;4139198;28;19937;-54
2023/08/08 10:13:55;;;;;;;;;;;20.60;72.60;;;;;;4154316;28;20022;-53
2023/08/08 10:16:37;;;;;;;;;;;20.60;71.40;;;;;;4159476;28;19936;-48
2023/08/08 10:19:22;;;;;;;;;;;20.60;71.40;;;;;;4141675;28;19933;-50
2023/08/08 10:22:04;;;;;;;;;;;20.60;71.40;;;;;;4148795;28;20427;-50
2023/08/08 10:24:48;;;;;;;;;;;20.50;71.80;;;;;;4153812;28;19940;-48
2023/08/08 10:27:29;;;;;;;;;;;20.50;73.00;;;;;;4155277;28;20059;-50
2023/08/08 10:30:11;;;;;;;;;;;20.50;72.20;;;;;;4154983;28;20269;-49
2023/08/08 10:32:52;;;;;;;;;;;20.40;72.20;;;;;;4143017;28;20312;-52
2023/08/08 10:35:37;;;;;;;;;;;20.40;72.40;;;;;;4138449;28;19936;-50
2023/08/08 10:38:18;;;;;;;;;;;20.40;72.60;;;;;;4138432;28;20055;-51
2023/08/08 10:41:00;;;;;;;;;;;20.40;72.80;;;;;;4143946;28;20516;-49
2023/08/08 10:43:48;;;;;;;;;;;20.40;73.10;;;;;;4155419;28;19932;-51
2023/08/08 10:46:29;;;;;;;;;;;20.40;73.40;;;;;;4155349;28;19952;-51
2023/08/08 10:49:12;;;;;;;;;;;20.30;73.70;;;;;;4138572;28;19936;-49
2023/08/08 10:51:55;;;;;;;;;;;20.30;73.80;;;;;;4138804;28;20439;-53
2023/08/08 10:54:36;;;;;;;;;;;20.30;74.00;;;;;;4138540;28;20293;-56
2023/08/08 10:57:19;;;;;;;;;;;20.30;74.00;;;;;;4140177;28;19932;-48
2023/08/08 11:00:15;;;;;;;;;;;20.30;73.90;;;;;;4141324;28;19940;-48
2023/08/08 11:02:56;;;;;;;;;;;20.30;74.10;;;;;;4152133;28;19936;-49
2023/08/08 11:05:37;;;;;;;;;;;20.30;74.40;;;;;;4154452;28;19936;-49
2023/08/08 11:08:21;;;;;;;;;;;20.30;74.40;;;;;;4137919;28;20003;-50
2023/08/08 11:11:03;;;;;;;;;;;20.30;73.80;;;;;;4171141;28;19936;-49
2023/08/08 11:13:44;;;;;;;;;;;20.30;73.50;;;;;;4153059;28;19935;-48
2023/08/08 11:16:25;;;;;;;;;;;20.30;73.70;;;;;;4154346;28;20395;-51
2023/08/08 11:19:06;;;;;;;;;;;20.40;73.40;;;;;;4154228;28;19932;-52
2023/08/08 11:21:47;;;;;;;;;;;20.40;73.10;;;;;;4154447;28;20386;-55
2023/08/08 11:24:35;;;;;;;;;;;20.40;72.80;;;;;;4170977;28;19987;-53
2023/08/08 11:27:15;;;;;;;;;;;20.40;72.50;;;;;;4156266;28;20403;-56
2023/08/08 11:30:17;;;;;;;;;;;20.50;73.50;;;;;;4137768;28;19937;-55
2023/08/08 11:32:58;;;;;;;;;;;20.50;72.40;;;;;;4147056;28;19932;-53
2023/08/08 11:35:48;;;;;;;;;;;20.50;72.20;;;;;;4154179;28;20334;-55
2023/08/08 11:38:30;;;;;;;;;;;20.60;71.80;;;;;;4151937;28;19983;-52
2023/08/08 11:41:13;;;;;;;;;;;20.60;72.40;;;;;;4153283;28;19963;-56
2023/08/08 11:43:54;;;;;;;;;;;20.60;71.20;;;;;;4154271;28;20363;-53
2023/08/08 11:46:35;;;;;;;;;;;20.60;71.10;;;;;;4172852;28;20398;-56
2023/08/08 11:49:16;;;;;;;;;;;20.70;70.90;;;;;;4152985;28;19983;-55
2023/08/08 11:51:57;;;;;;;;;;;20.70;70.70;;;;;;4154204;28;19936;-56
2023/08/08 11:54:38;;;;;;;;;;;20.70;70.40;;;;;;4152843;28;20038;-49
2023/08/08 11:57:20;;;;;;;;;;;20.70;70.00;;;;;;4153267;28;20003;-51
2023/08/08 12:00:02;;;;;;;;;;;20.80;69.90;;;;;;4148465;28;19936;-49
2023/08/08 12:02:53;;;;;;;;;;;20.80;69.30;;;;;;4153323;28;21698;-54
2023/08/08 12:05:37;;;;;;;;;;;20.90;69.80;;;;;;4152416;28;20067;-50
2023/08/08 12:08:18;;;;;;;;;;;20.90;69.60;;;;;;4155180;28;19936;-49
2023/08/08 12:11:01;;;;;;;;;;;20.90;69.00;;;;;;4153407;28;19935;-48
2023/08/08 12:13:44;;;;;;;;;;;20.90;69.00;;;;;;4155695;28;19948;-49
2023/08/08 12:16:28;;;;;;;;;;;20.90;68.60;;;;;;4156640;28;19932;-54
2023/08/08 12:19:10;;;;;;;;;;;20.90;68.40;;;;;;4145430;28;20427;-51
2023/08/08 12:21:52;;;;;;;;;;;20.90;68.30;;;;;;4174342;28;19936;-50
2023/08/08 12:24:33;;;;;;;;;;;20.90;67.90;;;;;;4173398;28;19936;-48
2023/08/08 12:27:14;;;;;;;;;;;21.00;69.00;;;;;;4173813;28;19931;-49
2023/08/08 12:29:56;;;;;;;;;;;21.00;67.90;;;;;;4158990;28;19955;-47
2023/08/08 12:32:37;;;;;;;;;;;21.00;67.50;;;;;;4141173;28;19936;-52
2023/08/08 12:35:20;;;;;;;;;;;21.00;67.50;;;;;;4147757;28;19932;-48
2023/08/08 12:38:00;;;;;;;;;;;21.00;67.40;;;;;;4156887;28;19936;-53
2023/08/08 12:40:41;;;;;;;;;;;21.00;67.50;;;;;;4147664;28;19975;-50
2023/08/08 12:43:21;;;;;;;;;;;20.90;67.80;;;;;;4140940;28;19936;-51
2023/08/08 12:46:04;;;;;;;;;;;21.00;68.00;;;;;;4140611;28;20455;-48
2023/08/08 12:48:45;;;;;;;;;;;20.90;68.10;;;;;;4124778;28;20281;-48
2023/08/08 12:51:25;;;;;;;;;;;21.00;68.80;;;;;;4140508;28;20408;-56
2023/08/08 12:54:06;;;;;;;;;;;20.90;68.80;;;;;;4140942;28;20019;-57
2023/08/08 12:56:48;;;;;;;;;;;20.90;68.40;;;;;;4130649;28;19987;-57
2023/08/08 12:59:28;;;;;;;;;;;20.90;69.00;;;;;;4140627;28;19987;-54
2023/08/08 13:02:10;;;;;;;;;;;20.90;68.70;;;;;;4140290;28;19936;-57
2023/08/08 13:04:51;;;;;;;;;;;20.90;68.60;;;;;;4141187;28;20359;-57
2023/08/08 13:07:33;;;;;;;;;;;20.90;68.90;;;;;;4139702;28;24304;-56
2023/08/08 13:10:15;;;;;;;;;;;20.90;69.00;;;;;;4140866;28;19933;-55
2023/08/08 13:12:56;;;;;;;;;;;20.90;69.40;;;;;;4156449;28;20000;-57
2023/08/08 13:15:36;;;;;;;;;;;20.90;69.70;;;;;;4157060;28;19932;-58
2023/08/08 13:18:19;;;;;;;;;;;20.90;69.10;;;;;;4155789;28;20038;-56
2023/08/08 13:21:00;;;;;;;;;;;20.90;67.80;;;;;;4124005;28;19952;-56
2023/08/08 13:23:41;;;;;;;;;;;20.90;68.60;;;;;;4139923;28;19932;-57
2023/08/08 13:26:22;;;;;;;;;;;21.00;68.50;;;;;;4137627;28;19932;-56
2023/08/08 13:29:03;;;;;;;;;;;20.90;68.50;;;;;;4138705;28;20426;-56
2023/08/08 13:31:44;;;;;;;;;;;21.00;68.70;;;;;;4143673;28;19936;-49
2023/08/08 13:34:26;;;;;;;;;;;20.90;68.40;;;;;;4156458;28;19931;-57
2023/08/08 13:37:07;;;;;;;;;;;21.00;67.80;;;;;;4156022;28;19964;-47
2023/08/08 13:39:47;;;;;;;;;;;20.90;67.90;;;;;;4156290;28;20046;-48
2023/08/08 13:42:28;;;;;;;;;;;21.00;67.80;;;;;;4140210;28;19937;-49
2023/08/08 13:45:10;;;;;;;;;;;21.00;67.90;;;;;;4156064;28;20026;-49
2023/08/08 13:47:50;;;;;;;;;;;21.00;68.40;;;;;;4172504;28;19936;-50
2023/08/08 13:50:33;;;;;;;;;;;21.00;68.20;;;;;;4172478;28;19932;-48
2023/08/08 13:53:14;;;;;;;;;;;21.00;68.20;;;;;;4155257;28;19936;-50
2023/08/08 13:55:54;;;;;;;;;;;21.00;68.30;;;;;;4156345;28;19931;-47
2023/08/08 13:58:36;;;;;;;;;;;21.00;67.90;;;;;;4154517;28;19932;-50
2023/08/08 14:01:16;;;;;;;;;;;21.10;68.50;;;;;;4145100;28;19978;-48
2023/08/08 14:03:57;;;;;;;;;;;21.10;68.40;;;;;;4153966;28;19936;-49
2023/08/08 14:06:39;;;;;;;;;;;21.10;69.20;;;;;;4148033;28;19936;-48
2023/08/08 14:09:21;;;;;;;;;;;21.10;68.40;;;;;;4127677;28;19937;-47
2023/08/08 14:12:01;;;;;;;;;;;21.10;68.10;;;;;;4151573;28;19932;-47
2023/08/08 14:14:42;;;;;;;;;;;21.20;68.00;;;;;;4153911;28;20379;-50
2023/08/08 14:17:23;;;;;;;;;;;21.20;68.80;;;;;;4156233;28;20067;-50
2023/08/08 14:20:04;;;;;;;;;;;21.20;68.30;;;;;;4155464;28;19935;-48
2023/08/08 14:22:47;;;;;;;;;;;21.20;67.70;;;;;;4136593;28;19932;-50
2023/08/08 14:25:29;;;;;;;;;;;21.20;66.90;;;;;;4144796;28;19932;-51
2023/08/08 14:28:10;;;;;;;;;;;21.20;66.50;;;;;;4138026;28;20497;-48
2023/08/08 14:30:50;;;;;;;;;;;21.20;66.80;;;;;;4152486;28;20689;-46
2023/08/08 14:33:31;;;;;;;;;;;21.20;68.70;;;;;;4152697;28;19936;-55
2023/08/08 14:36:12;;;;;;;;;;;21.20;67.50;;;;;;4142340;28;19932;-54
2023/08/08 14:38:54;;;;;;;;;;;21.20;67.10;;;;;;4155200;28;19981;-54
2023/08/08 14:41:35;;;;;;;;;;;21.30;67.40;;;;;;4141570;28;21511;-56
2023/08/08 14:44:16;;;;;;;;;;;21.20;66.80;;;;;;4155099;28;19940;-53
2023/08/08 14:46:56;;;;;;;;;;;21.20;66.50;;;;;;4155493;28;20525;-57
2023/08/08 14:49:37;;;;;;;;;;;21.30;66.90;;;;;;4145315;28;19932;-57
2023/08/08 14:52:18;;;;;;;;;;;21.30;66.40;;;;;;4154786;28;20491;-59
2023/08/08 14:55:00;;;;;;;;;;;21.30;66.90;;;;;;4154353;28;19932;-60
2023/08/08 14:57:41;;;;;;;;;;;21.30;66.90;;;;;;4149873;28;19936;-59
2023/08/08 15:00:22;;;;;;;;;;;21.30;67.70;;;;;;4171137;28;20098;-60
2023/08/08 15:03:03;;;;;;;;;;;21.30;66.20;;;;;;4167975;28;19931;-60
2023/08/08 15:05:45;;;;;;;;;;;21.40;66.40;;;;;;4164205;28;20284;-60
2023/08/08 15:08:26;;;;;;;;;;;21.40;65.70;;;;;;4153930;28;19931;-59
2023/08/08 15:11:08;;;;;;;;;;;21.40;66.40;;;;;;4171609;28;19932;-58
2023/08/08 15:13:49;;;;;;;;;;;21.40;66.20;;;;;;4154718;28;20020;-59
2023/08/08 15:16:30;;;;;;;;;;;21.40;66.20;;;;;;4145252;28;20006;-59
2023/08/08 15:19:11;;;;;;;;;;;21.40;65.30;;;;;;4154882;28;19932;-58
2023/08/08 15:21:53;;;;;;;;;;;21.40;65.40;;;;;;4154127;28;19952;-58
2023/08/08 15:24:35;;;;;;;;;;;21.40;65.80;;;;;;4153984;28;20398;-58
2023/08/08 15:27:18;;;;;;;;;;;21.40;64.10;;;;;;4146637;28;19935;-57
2023/08/08 15:29:59;;;;;;;;;;;21.40;63.90;;;;;;4150483;28;19931;-58
2023/08/08 15:32:40;;;;;;;;;;;21.40;64.10;;;;;;4125705;28;19936;-58
2023/08/08 15:35:20;;;;;;;;;;;21.40;64.40;;;;;;4138326;28;20048;-58
2023/08/08 15:38:02;;;;;;;;;;;21.40;63.60;;;;;;4127004;28;19937;-58